sensor_id;sensor_type;location;lat;lon;timestamp;P1;durP1;ratioP1;P2;durP2;ratioP2
68608;SDS011;55581;46.718;7.690;2024-02-15T00:02:14;2.75;;;0.55;;
68608;SDS011;55581;46.718;7.690;2024-02-15T00:04:39;3.00;;;0.50;;
68608;SDS011;55581;46.718;7.690;2024-02-15T00:07:05;4.35;;;0.80;;
68608;SDS011;55581;46.718;7.690;2024-02-15T00:09:33;3.33;;;0.50;;
68608;SDS011;55581;46.718;7.690;2024-02-15T00:11:59;3.13;;;0.30;;
68608;SDS011;55581;46.718;7.690;2024-02-15T00:14:25;3.05;;;0.60;;
68608;SDS011;55581;46.718;7.690;2024-02-15T00:16:53;5.70;;;1.08;;
68608;SDS011;55581;46.718;7.690;2024-02-15T00:19:18;3.30;;;0.90;;
68608;SDS011;55581;46.718;7.690;2024-02-15T00:21:46;4.57;;;1.00;;
68608;SDS011;55581;46.718;7.690;2024-02-15T00:24:12;4.63;;;0.77;;
68608;SDS011;55581;46.718;7.690;2024-02-15T00:26:39;3.30;;;0.50;;
68608;SDS011;55581;46.718;7.690;2024-02-15T00:29:05;6.17;;;0.97;;
68608;SDS011;55581;46.718;7.690;2024-02-15T00:31:32;4.65;;;0.80;;
68608;SDS011;55581;46.718;7.690;2024-02-15T00:33:58;2.60;;;0.63;;
68608;SDS011;55581;46.718;7.690;2024-02-15T00:36:24;3.67;;;0.75;;
68608;SDS011;55581;46.718;7.690;2024-02-15T00:38:53;2.95;;;0.45;;
68608;SDS011;55581;46.718;7.690;2024-02-15T00:41:18;3.93;;;1.07;;
68608;SDS011;55581;46.718;7.690;2024-02-15T00:43:49;2.70;;;0.45;;
68608;SDS011;55581;46.718;7.690;2024-02-15T00:46:17;2.85;;;0.50;;
68608;SDS011;55581;46.718;7.690;2024-02-15T00:48:42;3.05;;;0.57;;
68608;SDS011;55581;46.718;7.690;2024-02-15T00:51:08;3.90;;;0.50;;
68608;SDS011;55581;46.718;7.690;2024-02-15T00:53:36;4.23;;;0.57;;
68608;SDS011;55581;46.718;7.690;2024-02-15T00:56:01;3.00;;;0.47;;
68608;SDS011;55581;46.718;7.690;2024-02-15T00:58:27;2.90;;;0.80;;
68608;SDS011;55581;46.718;7.690;2024-02-15T01:00:53;2.67;;;0.40;;
68608;SDS011;55581;46.718;7.690;2024-02-15T01:03:18;3.20;;;0.43;;
68608;SDS011;55581;46.718;7.690;2024-02-15T01:05:45;3.63;;;0.50;;
68608;SDS011;55581;46.718;7.690;2024-02-15T01:08:10;4.38;;;0.68;;
68608;SDS011;55581;46.718;7.690;2024-02-15T01:10:36;2.97;;;0.60;;
68608;SDS011;55581;46.718;7.690;2024-02-15T01:13:04;2.47;;;0.30;;
68608;SDS011;55581;46.718;7.690;2024-02-15T01:15:29;2.47;;;0.50;;
68608;SDS011;55581;46.718;7.690;2024-02-15T01:17:55;2.05;;;0.40;;
68608;SDS011;55581;46.718;7.690;2024-02-15T01:20:20;2.87;;;0.50;;
68608;SDS011;55581;46.718;7.690;2024-02-15T01:22:46;2.87;;;0.30;;
68608;SDS011;55581;46.718;7.690;2024-02-15T01:25:15;2.58;;;0.40;;
68608;SDS011;55581;46.718;7.690;2024-02-15T01:27:42;3.30;;;0.50;;
68608;SDS011;55581;46.718;7.690;2024-02-15T01:30:07;4.87;;;0.50;;
68608;SDS011;55581;46.718;7.690;2024-02-15T01:32:33;1.77;;;0.30;;
68608;SDS011;55581;46.718;7.690;2024-02-15T01:34:59;1.63;;;0.33;;
68608;SDS011;55581;46.718;7.690;2024-02-15T01:37:24;2.37;;;0.20;;
68608;SDS011;55581;46.718;7.690;2024-02-15T01:39:49;3.28;;;0.20;;
68608;SDS011;55581;46.718;7.690;2024-02-15T01:42:17;1.93;;;0.30;;
68608;SDS011;55581;46.718;7.690;2024-02-15T01:44:43;2.22;;;0.38;;
68608;SDS011;55581;46.718;7.690;2024-02-15T01:47:09;2.63;;;0.50;;
68608;SDS011;55581;46.718;7.690;2024-02-15T01:49:38;1.88;;;0.28;;
68608;SDS011;55581;46.718;7.690;2024-02-15T01:52:04;1.98;;;0.20;;
68608;SDS011;55581;46.718;7.690;2024-02-15T01:54:33;3.13;;;0.50;;
68608;SDS011;55581;46.718;7.690;2024-02-15T01:57:03;2.60;;;0.32;;
68608;SDS011;55581;46.718;7.690;2024-02-15T01:59:29;3.45;;;0.30;;
68608;SDS011;55581;46.718;7.690;2024-02-15T02:01:56;5.10;;;0.45;;
68608;SDS011;55581;46.718;7.690;2024-02-15T02:04:21;3.43;;;0.40;;
68608;SDS011;55581;46.718;7.690;2024-02-15T02:06:49;2.55;;;0.20;;
68608;SDS011;55581;46.718;7.690;2024-02-15T02:09:21;1.95;;;0.22;;
68608;SDS011;55581;46.718;7.690;2024-02-15T02:11:47;1.50;;;0.20;;
68608;SDS011;55581;46.718;7.690;2024-02-15T02:14:13;1.83;;;0.35;;
68608;SDS011;55581;46.718;7.690;2024-02-15T02:16:38;1.33;;;0.20;;
68608;SDS011;55581;46.718;7.690;2024-02-15T02:19:07;2.42;;;0.30;;
68608;SDS011;55581;46.718;7.690;2024-02-15T02:21:34;1.60;;;0.30;;
68608;SDS011;55581;46.718;7.690;2024-02-15T02:24:04;3.13;;;0.40;;
68608;SDS011;55581;46.718;7.690;2024-02-15T02:26:39;2.47;;;0.30;;
68608;SDS011;55581;46.718;7.690;2024-02-15T02:29:05;4.50;;;0.50;;
68608;SDS011;55581;46.718;7.690;2024-02-15T02:31:34;3.13;;;0.40;;
68608;SDS011;55581;46.718;7.690;2024-02-15T02:33:59;4.72;;;0.63;;
68608;SDS011;55581;46.718;7.690;2024-02-15T02:36:25;1.73;;;0.20;;
68608;SDS011;55581;46.718;7.690;2024-02-15T02:38:54;2.47;;;0.23;;
68608;SDS011;55581;46.718;7.690;2024-02-15T02:41:20;4.70;;;0.40;;
68608;SDS011;55581;46.718;7.690;2024-02-15T02:43:46;2.15;;;0.22;;
68608;SDS011;55581;46.718;7.690;2024-02-15T02:46:11;1.43;;;0.10;;
68608;SDS011;55581;46.718;7.690;2024-02-15T02:48:38;1.93;;;0.23;;
68608;SDS011;55581;46.718;7.690;2024-02-15T02:51:04;2.17;;;0.30;;
68608;SDS011;55581;46.718;7.690;2024-02-15T02:53:30;0.90;;;0.10;;
68608;SDS011;55581;46.718;7.690;2024-02-15T02:55:58;1.80;;;0.30;;
68608;SDS011;55581;46.718;7.690;2024-02-15T02:58:24;3.97;;;0.47;;
68608;SDS011;55581;46.718;7.690;2024-02-15T03:00:49;1.95;;;0.30;;
68608;SDS011;55581;46.718;7.690;2024-02-15T03:03:16;1.88;;;0.40;;
68608;SDS011;55581;46.718;7.690;2024-02-15T03:05:47;2.30;;;0.30;;
68608;SDS011;55581;46.718;7.690;2024-02-15T03:08:13;3.45;;;0.30;;
68608;SDS011;55581;46.718;7.690;2024-02-15T03:10:39;2.03;;;0.23;;
68608;SDS011;55581;46.718;7.690;2024-02-15T03:13:05;1.90;;;0.22;;
68608;SDS011;55581;46.718;7.690;2024-02-15T03:15:34;3.25;;;0.20;;
68608;SDS011;55581;46.718;7.690;2024-02-15T03:17:59;2.72;;;0.35;;
68608;SDS011;55581;46.718;7.690;2024-02-15T03:20:25;3.53;;;0.40;;
68608;SDS011;55581;46.718;7.690;2024-02-15T03:25:19;1.87;;;0.33;;
68608;SDS011;55581;46.718;7.690;2024-02-15T03:27:48;3.13;;;0.25;;
68608;SDS011;55581;46.718;7.690;2024-02-15T03:30:14;2.58;;;0.45;;
68608;SDS011;55581;46.718;7.690;2024-02-15T03:32:39;4.20;;;0.37;;
68608;SDS011;55581;46.718;7.690;2024-02-15T03:35:08;2.13;;;0.30;;
68608;SDS011;55581;46.718;7.690;2024-02-15T03:37:33;1.47;;;0.20;;
68608;SDS011;55581;46.718;7.690;2024-02-15T03:40:02;4.15;;;0.35;;
68608;SDS011;55581;46.718;7.690;2024-02-15T03:42:29;3.25;;;0.70;;
68608;SDS011;55581;46.718;7.690;2024-02-15T03:44:55;5.18;;;0.43;;
68608;SDS011;55581;46.718;7.690;2024-02-15T03:47:21;2.10;;;0.30;;
68608;SDS011;55581;46.718;7.690;2024-02-15T03:49:46;1.55;;;0.10;;
68608;SDS011;55581;46.718;7.690;2024-02-15T03:52:12;4.37;;;2.10;;
68608;SDS011;55581;46.718;7.690;2024-02-15T03:54:38;2.38;;;0.60;;
68608;SDS011;55581;46.718;7.690;2024-02-15T03:57:03;2.10;;;0.30;;
68608;SDS011;55581;46.718;7.690;2024-02-15T03:59:31;1.80;;;0.40;;
68608;SDS011;55581;46.718;7.690;2024-02-15T04:01:57;4.40;;;0.60;;
68608;SDS011;55581;46.718;7.690;2024-02-15T04:04:23;6.07;;;0.90;;
68608;SDS011;55581;46.718;7.690;2024-02-15T04:06:51;2.87;;;0.60;;
68608;SDS011;55581;46.718;7.690;2024-02-15T04:09:17;2.13;;;0.20;;
68608;SDS011;55581;46.718;7.690;2024-02-15T04:11:46;2.83;;;0.40;;
68608;SDS011;55581;46.718;7.690;2024-02-15T04:14:15;1.55;;;0.20;;
68608;SDS011;55581;46.718;7.690;2024-02-15T04:16:43;1.57;;;0.20;;
68608;SDS011;55581;46.718;7.690;2024-02-15T04:19:08;2.05;;;0.20;;
68608;SDS011;55581;46.718;7.690;2024-02-15T04:21:34;1.83;;;0.30;;
68608;SDS011;55581;46.718;7.690;2024-02-15T04:24:00;4.43;;;0.40;;
68608;SDS011;55581;46.718;7.690;2024-02-15T04:26:25;2.37;;;0.30;;
68608;SDS011;55581;46.718;7.690;2024-02-15T04:28:52;3.03;;;0.50;;
68608;SDS011;55581;46.718;7.690;2024-02-15T04:31:18;2.42;;;0.45;;
68608;SDS011;55581;46.718;7.690;2024-02-15T04:33:45;2.00;;;0.20;;
68608;SDS011;55581;46.718;7.690;2024-02-15T04:36:14;2.97;;;0.50;;
68608;SDS011;55581;46.718;7.690;2024-02-15T04:38:40;2.17;;;0.30;;
68608;SDS011;55581;46.718;7.690;2024-02-15T04:41:06;3.03;;;0.40;;
68608;SDS011;55581;46.718;7.690;2024-02-15T04:43:34;2.60;;;0.50;;
68608;SDS011;55581;46.718;7.690;2024-02-15T04:46:03;3.67;;;0.30;;
68608;SDS011;55581;46.718;7.690;2024-02-15T04:48:32;1.58;;;0.25;;
68608;SDS011;55581;46.718;7.690;2024-02-15T04:50:59;5.60;;;0.87;;
68608;SDS011;55581;46.718;7.690;2024-02-15T04:53:25;2.88;;;0.35;;
68608;SDS011;55581;46.718;7.690;2024-02-15T04:55:50;2.00;;;0.20;;
68608;SDS011;55581;46.718;7.690;2024-02-15T04:58:16;1.07;;;0.10;;
68608;SDS011;55581;46.718;7.690;2024-02-15T05:00:43;2.80;;;0.47;;
68608;SDS011;55581;46.718;7.690;2024-02-15T05:03:09;1.70;;;0.10;;
68608;SDS011;55581;46.718;7.690;2024-02-15T05:05:34;1.33;;;0.10;;
68608;SDS011;55581;46.718;7.690;2024-02-15T05:08:00;1.00;;;0.10;;
68608;SDS011;55581;46.718;7.690;2024-02-15T05:10:26;2.58;;;0.20;;
68608;SDS011;55581;46.718;7.690;2024-02-15T05:12:52;2.60;;;0.20;;
68608;SDS011;55581;46.718;7.690;2024-02-15T05:15:18;2.72;;;0.10;;
68608;SDS011;55581;46.718;7.690;2024-02-15T05:17:48;2.45;;;0.50;;
68608;SDS011;55581;46.718;7.690;2024-02-15T05:20:13;2.23;;;0.30;;
68608;SDS011;55581;46.718;7.690;2024-02-15T05:22:41;2.80;;;0.30;;
68608;SDS011;55581;46.718;7.690;2024-02-15T05:25:15;2.75;;;0.30;;
68608;SDS011;55581;46.718;7.690;2024-02-15T05:27:45;1.58;;;0.20;;
68608;SDS011;55581;46.718;7.690;2024-02-15T05:30:14;2.72;;;0.35;;
68608;SDS011;55581;46.718;7.690;2024-02-15T05:32:42;2.42;;;0.30;;
68608;SDS011;55581;46.718;7.690;2024-02-15T05:35:09;2.80;;;0.40;;
68608;SDS011;55581;46.718;7.690;2024-02-15T05:37:36;2.20;;;0.40;;
68608;SDS011;55581;46.718;7.690;2024-02-15T05:40:01;2.40;;;0.63;;
68608;SDS011;55581;46.718;7.690;2024-02-15T05:42:26;2.00;;;0.40;;
68608;SDS011;55581;46.718;7.690;2024-02-15T05:44:52;4.83;;;0.37;;
68608;SDS011;55581;46.718;7.690;2024-02-15T05:47:18;2.67;;;0.50;;
68608;SDS011;55581;46.718;7.690;2024-02-15T05:49:43;2.53;;;0.50;;
68608;SDS011;55581;46.718;7.690;2024-02-15T05:52:10;3.73;;;0.77;;
68608;SDS011;55581;46.718;7.690;2024-02-15T05:54:36;3.00;;;0.60;;
68608;SDS011;55581;46.718;7.690;2024-02-15T05:57:01;4.37;;;0.60;;
68608;SDS011;55581;46.718;7.690;2024-02-15T05:59:27;10.60;;;1.00;;
68608;SDS011;55581;46.718;7.690;2024-02-15T06:01:52;2.47;;;0.30;;
68608;SDS011;55581;46.718;7.690;2024-02-15T06:04:20;2.53;;;0.38;;
68608;SDS011;55581;46.718;7.690;2024-02-15T06:06:45;3.13;;;0.40;;
68608;SDS011;55581;46.718;7.690;2024-02-15T06:09:13;3.30;;;0.43;;
68608;SDS011;55581;46.718;7.690;2024-02-15T06:11:39;2.67;;;0.57;;
68608;SDS011;55581;46.718;7.690;2024-02-15T06:14:04;2.27;;;0.30;;
68608;SDS011;55581;46.718;7.690;2024-02-15T06:16:32;3.38;;;0.63;;
68608;SDS011;55581;46.718;7.690;2024-02-15T06:18:57;3.27;;;0.50;;
68608;SDS011;55581;46.718;7.690;2024-02-15T06:21:24;5.43;;;0.85;;
68608;SDS011;55581;46.718;7.690;2024-02-15T06:23:49;3.33;;;0.67;;
68608;SDS011;55581;46.718;7.690;2024-02-15T06:26:16;4.90;;;1.52;;
68608;SDS011;55581;46.718;7.690;2024-02-15T06:28:42;2.33;;;0.38;;
68608;SDS011;55581;46.718;7.690;2024-02-15T06:31:26;3.38;;;0.47;;
68608;SDS011;55581;46.718;7.690;2024-02-15T06:34:10;3.03;;;0.47;;
68608;SDS011;55581;46.718;7.690;2024-02-15T06:36:55;2.72;;;0.57;;
68608;SDS011;55581;46.718;7.690;2024-02-15T06:39:40;3.58;;;0.50;;
68608;SDS011;55581;46.718;7.690;2024-02-15T06:42:11;2.80;;;0.30;;
68608;SDS011;55581;46.718;7.690;2024-02-15T06:44:39;2.60;;;0.47;;
68608;SDS011;55581;46.718;7.690;2024-02-15T06:47:05;3.17;;;0.47;;
68608;SDS011;55581;46.718;7.690;2024-02-15T06:49:31;3.05;;;0.50;;
68608;SDS011;55581;46.718;7.690;2024-02-15T06:51:58;3.03;;;0.57;;
68608;SDS011;55581;46.718;7.690;2024-02-15T06:54:24;3.10;;;0.60;;
68608;SDS011;55581;46.718;7.690;2024-02-15T06:56:52;3.63;;;0.70;;
68608;SDS011;55581;46.718;7.690;2024-02-15T06:59:21;3.78;;;0.77;;
68608;SDS011;55581;46.718;7.690;2024-02-15T07:01:50;3.63;;;0.40;;
68608;SDS011;55581;46.718;7.690;2024-02-15T07:04:17;4.23;;;0.40;;
68608;SDS011;55581;46.718;7.690;2024-02-15T07:06:43;1.98;;;0.22;;
68608;SDS011;55581;46.718;7.690;2024-02-15T07:09:11;3.65;;;0.50;;
68608;SDS011;55581;46.718;7.690;2024-02-15T07:11:36;3.47;;;0.70;;
68608;SDS011;55581;46.718;7.690;2024-02-15T07:14:02;2.60;;;0.57;;
68608;SDS011;55581;46.718;7.690;2024-02-15T07:16:32;6.00;;;0.40;;
68608;SDS011;55581;46.718;7.690;2024-02-15T07:18:58;3.73;;;0.47;;
68608;SDS011;55581;46.718;7.690;2024-02-15T07:21:28;3.20;;;0.63;;
68608;SDS011;55581;46.718;7.690;2024-02-15T07:23:54;3.72;;;0.82;;
68608;SDS011;55581;46.718;7.690;2024-02-15T07:26:20;3.95;;;0.70;;
68608;SDS011;55581;46.718;7.690;2024-02-15T07:28:49;3.43;;;0.40;;
68608;SDS011;55581;46.718;7.690;2024-02-15T07:31:22;2.55;;;0.40;;
68608;SDS011;55581;46.718;7.690;2024-02-15T07:33:48;4.95;;;1.25;;
68608;SDS011;55581;46.718;7.690;2024-02-15T07:36:22;5.25;;;0.65;;
68608;SDS011;55581;46.718;7.690;2024-02-15T07:38:48;3.63;;;0.70;;
68608;SDS011;55581;46.718;7.690;2024-02-15T07:41:23;4.40;;;0.80;;
68608;SDS011;55581;46.718;7.690;2024-02-15T07:43:49;2.97;;;0.65;;
68608;SDS011;55581;46.718;7.690;2024-02-15T07:46:15;4.30;;;0.88;;
68608;SDS011;55581;46.718;7.690;2024-02-15T07:48:44;2.00;;;0.30;;
68608;SDS011;55581;46.718;7.690;2024-02-15T07:51:13;2.93;;;0.50;;
68608;SDS011;55581;46.718;7.690;2024-02-15T07:53:41;4.63;;;0.40;;
68608;SDS011;55581;46.718;7.690;2024-02-15T07:56:11;2.60;;;0.43;;
68608;SDS011;55581;46.718;7.690;2024-02-15T07:58:41;1.92;;;0.25;;
68608;SDS011;55581;46.718;7.690;2024-02-15T08:01:17;2.13;;;0.20;;
68608;SDS011;55581;46.718;7.690;2024-02-15T08:03:42;2.83;;;0.37;;
68608;SDS011;55581;46.718;7.690;2024-02-15T08:06:14;2.30;;;0.40;;
68608;SDS011;55581;46.718;7.690;2024-02-15T08:08:41;2.30;;;0.20;;
68608;SDS011;55581;46.718;7.690;2024-02-15T08:11:08;2.70;;;0.38;;
68608;SDS011;55581;46.718;7.690;2024-02-15T08:13:40;2.90;;;0.60;;
68608;SDS011;55581;46.718;7.690;2024-02-15T08:16:09;3.58;;;0.57;;
68608;SDS011;55581;46.718;7.690;2024-02-15T08:18:36;5.78;;;0.47;;
68608;SDS011;55581;46.718;7.690;2024-02-15T08:21:02;3.25;;;0.50;;
68608;SDS011;55581;46.718;7.690;2024-02-15T08:23:29;2.40;;;0.50;;
68608;SDS011;55581;46.718;7.690;2024-02-15T08:25:57;3.33;;;0.53;;
68608;SDS011;55581;46.718;7.690;2024-02-15T08:28:25;3.30;;;0.50;;
68608;SDS011;55581;46.718;7.690;2024-02-15T08:30:53;3.23;;;0.60;;
68608;SDS011;55581;46.718;7.690;2024-02-15T08:33:22;4.10;;;0.60;;
68608;SDS011;55581;46.718;7.690;2024-02-15T08:35:49;2.70;;;0.40;;
68608;SDS011;55581;46.718;7.690;2024-02-15T08:38:20;5.97;;;0.55;;
68608;SDS011;55581;46.718;7.690;2024-02-15T08:40:46;3.17;;;0.50;;
68608;SDS011;55581;46.718;7.690;2024-02-15T08:43:12;2.90;;;0.50;;
68608;SDS011;55581;46.718;7.690;2024-02-15T08:45:38;2.58;;;0.40;;
68608;SDS011;55581;46.718;7.690;2024-02-15T08:48:04;2.10;;;0.40;;
68608;SDS011;55581;46.718;7.690;2024-02-15T08:50:30;5.73;;;0.47;;
68608;SDS011;55581;46.718;7.690;2024-02-15T08:52:55;3.25;;;0.40;;
68608;SDS011;55581;46.718;7.690;2024-02-15T08:55:21;2.30;;;0.33;;
68608;SDS011;55581;46.718;7.690;2024-02-15T08:57:51;2.53;;;0.45;;
68608;SDS011;55581;46.718;7.690;2024-02-15T09:00:18;4.47;;;0.50;;
68608;SDS011;55581;46.718;7.690;2024-02-15T09:05:09;1.80;;;0.30;;
68608;SDS011;55581;46.718;7.690;2024-02-15T09:07:35;4.60;;;0.50;;
68608;SDS011;55581;46.718;7.690;2024-02-15T09:10:07;1.93;;;0.40;;
68608;SDS011;55581;46.718;7.690;2024-02-15T09:12:34;2.42;;;0.30;;
68608;SDS011;55581;46.718;7.690;2024-02-15T09:15:02;3.17;;;0.55;;
68608;SDS011;55581;46.718;7.690;2024-02-15T09:17:28;3.00;;;0.50;;
68608;SDS011;55581;46.718;7.690;2024-02-15T09:19:58;3.30;;;0.50;;
68608;SDS011;55581;46.718;7.690;2024-02-15T09:22:24;2.10;;;0.23;;
68608;SDS011;55581;46.718;7.690;2024-02-15T09:24:49;2.80;;;0.33;;
68608;SDS011;55581;46.718;7.690;2024-02-15T09:27:17;1.47;;;0.20;;
68608;SDS011;55581;46.718;7.690;2024-02-15T09:29:46;1.38;;;0.25;;
68608;SDS011;55581;46.718;7.690;2024-02-15T09:32:11;3.30;;;0.30;;
68608;SDS011;55581;46.718;7.690;2024-02-15T09:34:37;1.50;;;0.20;;
68608;SDS011;55581;46.718;7.690;2024-02-15T09:37:02;2.87;;;0.53;;
68608;SDS011;55581;46.718;7.690;2024-02-15T09:39:28;4.13;;;0.75;;
68608;SDS011;55581;46.718;7.690;2024-02-15T09:41:53;5.13;;;1.20;;
68608;SDS011;55581;46.718;7.690;2024-02-15T09:44:23;4.18;;;1.40;;
68608;SDS011;55581;46.718;7.690;2024-02-15T09:46:56;4.97;;;1.40;;
68608;SDS011;55581;46.718;7.690;2024-02-15T09:49:35;6.65;;;1.40;;
68608;SDS011;55581;46.718;7.690;2024-02-15T09:52:03;4.72;;;1.50;;
68608;SDS011;55581;46.718;7.690;2024-02-15T09:54:31;3.75;;;1.30;;
68608;SDS011;55581;46.718;7.690;2024-02-15T09:56:59;5.35;;;1.30;;
68608;SDS011;55581;46.718;7.690;2024-02-15T09:59:26;5.77;;;1.40;;
68608;SDS011;55581;46.718;7.690;2024-02-15T10:01:54;4.95;;;1.70;;
68608;SDS011;55581;46.718;7.690;2024-02-15T10:04:24;4.60;;;1.50;;
68608;SDS011;55581;46.718;7.690;2024-02-15T10:06:50;5.70;;;1.55;;
68608;SDS011;55581;46.718;7.690;2024-02-15T10:11:58;4.40;;;1.40;;
68608;SDS011;55581;46.718;7.690;2024-02-15T10:14:24;4.78;;;1.30;;
68608;SDS011;55581;46.718;7.690;2024-02-15T10:16:53;5.47;;;1.50;;
68608;SDS011;55581;46.718;7.690;2024-02-15T10:19:19;4.97;;;1.60;;
68608;SDS011;55581;46.718;7.690;2024-02-15T10:21:50;4.40;;;0.90;;
68608;SDS011;55581;46.718;7.690;2024-02-15T10:24:19;4.80;;;1.40;;
68608;SDS011;55581;46.718;7.690;2024-02-15T10:26:45;5.77;;;1.10;;
68608;SDS011;55581;46.718;7.690;2024-02-15T10:29:13;6.00;;;1.27;;
68608;SDS011;55581;46.718;7.690;2024-02-15T10:31:40;3.55;;;1.27;;
68608;SDS011;55581;46.718;7.690;2024-02-15T10:34:17;5.17;;;1.10;;
68608;SDS011;55581;46.718;7.690;2024-02-15T10:36:45;3.10;;;1.05;;
68608;SDS011;55581;46.718;7.690;2024-02-15T10:39:15;3.10;;;0.77;;
68608;SDS011;55581;46.718;7.690;2024-02-15T10:41:45;6.37;;;1.40;;
68608;SDS011;55581;46.718;7.690;2024-02-15T10:44:15;3.20;;;1.10;;
68608;SDS011;55581;46.718;7.690;2024-02-15T10:46:43;4.15;;;0.80;;
68608;SDS011;55581;46.718;7.690;2024-02-15T10:49:10;3.92;;;1.02;;
68608;SDS011;55581;46.718;7.690;2024-02-15T10:51:43;3.35;;;0.90;;
68608;SDS011;55581;46.718;7.690;2024-02-15T10:54:19;4.50;;;0.87;;
68608;SDS011;55581;46.718;7.690;2024-02-15T10:57:06;3.97;;;1.15;;
68608;SDS011;55581;46.718;7.690;2024-02-15T10:59:35;4.32;;;1.20;;
68608;SDS011;55581;46.718;7.690;2024-02-15T11:02:27;2.90;;;0.60;;
68608;SDS011;55581;46.718;7.690;2024-02-15T11:04:53;3.28;;;0.70;;
68608;SDS011;55581;46.718;7.690;2024-02-15T11:07:25;4.37;;;0.90;;
68608;SDS011;55581;46.718;7.690;2024-02-15T11:09:56;3.38;;;0.77;;
68608;SDS011;55581;46.718;7.690;2024-02-15T11:12:23;4.28;;;0.68;;
68608;SDS011;55581;46.718;7.690;2024-02-15T11:14:50;4.45;;;0.93;;
68608;SDS011;55581;46.718;7.690;2024-02-15T11:20:05;4.57;;;1.13;;
68608;SDS011;55581;46.718;7.690;2024-02-15T11:22:36;4.15;;;1.70;;
68608;SDS011;55581;46.718;7.690;2024-02-15T11:25:05;2.97;;;0.90;;
68608;SDS011;55581;46.718;7.690;2024-02-15T11:27:38;4.88;;;1.30;;
68608;SDS011;55581;46.718;7.690;2024-02-15T11:30:06;5.07;;;1.40;;
68608;SDS011;55581;46.718;7.690;2024-02-15T11:32:43;4.07;;;1.10;;
68608;SDS011;55581;46.718;7.690;2024-02-15T11:35:20;4.28;;;1.20;;
68608;SDS011;55581;46.718;7.690;2024-02-15T11:37:55;4.13;;;1.05;;
68608;SDS011;55581;46.718;7.690;2024-02-15T11:40:25;5.40;;;1.33;;
68608;SDS011;55581;46.718;7.690;2024-02-15T11:46:17;5.03;;;1.10;;
68608;SDS011;55581;46.718;7.690;2024-02-15T11:48:50;3.50;;;0.80;;
68608;SDS011;55581;46.718;7.690;2024-02-15T11:51:28;3.60;;;1.17;;
68608;SDS011;55581;46.718;7.690;2024-02-15T11:54:03;10.10;;;0.95;;
68608;SDS011;55581;46.718;7.690;2024-02-15T11:59:29;2.93;;;0.63;;
68608;SDS011;55581;46.718;7.690;2024-02-15T12:01:57;6.63;;;1.13;;
68608;SDS011;55581;46.718;7.690;2024-02-15T12:04:42;4.13;;;0.88;;
68608;SDS011;55581;46.718;7.690;2024-02-15T12:07:29;11.80;;;5.22;;
68608;SDS011;55581;46.718;7.690;2024-02-15T12:10:17;9.45;;;4.22;;
68608;SDS011;55581;46.718;7.690;2024-02-15T12:13:01;14.30;;;6.67;;
68608;SDS011;55581;46.718;7.690;2024-02-15T12:16:01;8.10;;;3.00;;
68608;SDS011;55581;46.718;7.690;2024-02-15T12:18:45;4.80;;;1.52;;
68608;SDS011;55581;46.718;7.690;2024-02-15T12:21:18;4.75;;;1.38;;
68608;SDS011;55581;46.718;7.690;2024-02-15T12:23:48;5.88;;;1.52;;
68608;SDS011;55581;46.718;7.690;2024-02-15T12:26:18;4.43;;;1.00;;
68608;SDS011;55581;46.718;7.690;2024-02-15T12:28:46;3.13;;;0.90;;
68608;SDS011;55581;46.718;7.690;2024-02-15T12:31:15;3.60;;;1.10;;
68608;SDS011;55581;46.718;7.690;2024-02-15T12:33:42;3.75;;;1.23;;
68608;SDS011;55581;46.718;7.690;2024-02-15T12:36:08;4.15;;;1.10;;
68608;SDS011;55581;46.718;7.690;2024-02-15T12:38:34;5.80;;;1.50;;
68608;SDS011;55581;46.718;7.690;2024-02-15T12:41:24;5.70;;;1.38;;
68608;SDS011;55581;46.718;7.690;2024-02-15T12:43:54;3.38;;;1.00;;
68608;SDS011;55581;46.718;7.690;2024-02-15T12:46:22;5.33;;;1.63;;
68608;SDS011;55581;46.718;7.690;2024-02-15T12:48:47;3.97;;;1.27;;
68608;SDS011;55581;46.718;7.690;2024-02-15T12:51:14;3.70;;;1.25;;
68608;SDS011;55581;46.718;7.690;2024-02-15T12:53:41;3.53;;;1.05;;
68608;SDS011;55581;46.718;7.690;2024-02-15T12:56:07;4.33;;;1.40;;
68608;SDS011;55581;46.718;7.690;2024-02-15T12:58:34;5.45;;;1.30;;
68608;SDS011;55581;46.718;7.690;2024-02-15T13:01:00;2.95;;;0.98;;
68608;SDS011;55581;46.718;7.690;2024-02-15T13:03:29;5.72;;;1.45;;
68608;SDS011;55581;46.718;7.690;2024-02-15T13:05:54;3.47;;;1.37;;
68608;SDS011;55581;46.718;7.690;2024-02-15T13:08:23;5.00;;;1.20;;
68608;SDS011;55581;46.718;7.690;2024-02-15T13:10:48;3.95;;;1.30;;
68608;SDS011;55581;46.718;7.690;2024-02-15T13:13:15;4.43;;;1.10;;
68608;SDS011;55581;46.718;7.690;2024-02-15T13:15:41;4.30;;;1.30;;
68608;SDS011;55581;46.718;7.690;2024-02-15T13:18:06;4.75;;;1.23;;
68608;SDS011;55581;46.718;7.690;2024-02-15T13:20:36;3.80;;;1.40;;
68608;SDS011;55581;46.718;7.690;2024-02-15T13:23:09;4.10;;;1.10;;
68608;SDS011;55581;46.718;7.690;2024-02-15T13:25:50;3.25;;;0.90;;
68608;SDS011;55581;46.718;7.690;2024-02-15T13:28:17;13.40;;;2.00;;
68608;SDS011;55581;46.718;7.690;2024-02-15T13:30:43;3.83;;;1.17;;
68608;SDS011;55581;46.718;7.690;2024-02-15T13:33:13;4.15;;;1.20;;
68608;SDS011;55581;46.718;7.690;2024-02-15T13:35:38;4.13;;;1.20;;
68608;SDS011;55581;46.718;7.690;2024-02-15T13:38:04;5.32;;;1.27;;
68608;SDS011;55581;46.718;7.690;2024-02-15T13:40:29;6.73;;;1.23;;
68608;SDS011;55581;46.718;7.690;2024-02-15T13:42:58;4.68;;;1.52;;
68608;SDS011;55581;46.718;7.690;2024-02-15T13:45:27;4.47;;;1.40;;
68608;SDS011;55581;46.718;7.690;2024-02-15T13:47:58;4.40;;;1.50;;
68608;SDS011;55581;46.718;7.690;2024-02-15T13:50:28;4.80;;;1.55;;
68608;SDS011;55581;46.718;7.690;2024-02-15T13:52:56;12.57;;;1.70;;
68608;SDS011;55581;46.718;7.690;2024-02-15T13:55:23;3.33;;;1.20;;
68608;SDS011;55581;46.718;7.690;2024-02-15T13:57:50;4.30;;;1.23;;
68608;SDS011;55581;46.718;7.690;2024-02-15T14:00:17;4.47;;;1.40;;
68608;SDS011;55581;46.718;7.690;2024-02-15T14:02:53;4.43;;;1.25;;
68608;SDS011;55581;46.718;7.690;2024-02-15T14:05:20;5.07;;;1.33;;
68608;SDS011;55581;46.718;7.690;2024-02-15T14:07:49;3.33;;;0.95;;
68608;SDS011;55581;46.718;7.690;2024-02-15T14:10:20;5.65;;;1.60;;
68608;SDS011;55581;46.718;7.690;2024-02-15T14:12:46;3.90;;;1.30;;
68608;SDS011;55581;46.718;7.690;2024-02-15T14:15:13;3.60;;;1.00;;
68608;SDS011;55581;46.718;7.690;2024-02-15T14:17:42;2.97;;;0.90;;
68608;SDS011;55581;46.718;7.690;2024-02-15T14:20:09;3.95;;;1.40;;
68608;SDS011;55581;46.718;7.690;2024-02-15T14:22:43;4.97;;;1.42;;
68608;SDS011;55581;46.718;7.690;2024-02-15T14:25:20;4.43;;;1.23;;
68608;SDS011;55581;46.718;7.690;2024-02-15T14:27:46;4.75;;;1.15;;
68608;SDS011;55581;46.718;7.690;2024-02-15T14:30:15;6.93;;;1.27;;
68608;SDS011;55581;46.718;7.690;2024-02-15T14:32:59;3.92;;;1.13;;
68608;SDS011;55581;46.718;7.690;2024-02-15T14:35:32;4.45;;;1.45;;
68608;SDS011;55581;46.718;7.690;2024-02-15T14:40:35;5.97;;;1.10;;
68608;SDS011;55581;46.718;7.690;2024-02-15T14:43:04;5.78;;;1.25;;
68608;SDS011;55581;46.718;7.690;2024-02-15T14:45:33;5.07;;;1.10;;
68608;SDS011;55581;46.718;7.690;2024-02-15T14:48:01;4.30;;;1.02;;
68608;SDS011;55581;46.718;7.690;2024-02-15T14:50:27;3.80;;;1.20;;
68608;SDS011;55581;46.718;7.690;2024-02-15T14:52:54;5.45;;;1.27;;
68608;SDS011;55581;46.718;7.690;2024-02-15T14:55:19;5.20;;;1.60;;
68608;SDS011;55581;46.718;7.690;2024-02-15T14:57:45;5.37;;;1.10;;
68608;SDS011;55581;46.718;7.690;2024-02-15T15:00:11;4.15;;;1.23;;
68608;SDS011;55581;46.718;7.690;2024-02-15T15:02:44;4.50;;;1.42;;
68608;SDS011;55581;46.718;7.690;2024-02-15T15:05:11;3.85;;;1.08;;
68608;SDS011;55581;46.718;7.690;2024-02-15T15:07:55;2.90;;;1.00;;
68608;SDS011;55581;46.718;7.690;2024-02-15T15:10:39;3.80;;;1.17;;
68608;SDS011;55581;46.718;7.690;2024-02-15T15:13:34;5.25;;;1.00;;
68608;SDS011;55581;46.718;7.690;2024-02-15T15:16:00;5.93;;;1.10;;